Ana Sayfa
METAR-TAF:

METAR-TAF

Havaalanları :

Curaçao, Hollanda Antilleri

Enlem: 12-12N, Boylam: 068-58W, yükseklik: 9 m

Güncel hava durumu gözlemi

Rapor saat 15:00 UTC de 46 dakika önce yapıldı.
Rüzgar doğudan 13 kt
Sıcaklık 29°C
Nem 74%
Basınç 1012 hPa
Görüş mesafesi 10 km veya daha fazla
2000 ft yükseklikte parçalı çok bulutlu

METAR: TNCC 041500Z 10013KT 9999 BKN020 29/24 Q1012 NOSIG

Saat: 11:46 (15:46 UTC)

Tahmin

Rapor saat 11:15 UTC de 4 saat ve 31 dakika önce yapıldı.
Ayın 04'si saat 12 UTC'den ayın 05'si saat 12 UTC'ye kadar geçerli Tahmin
Rüzgar doğudan 12 kt
Görüş mesafesi 10 km veya daha fazla
2000 ft yükseklikte parçalı bulutlu
Olasılık 30% :
Geçici
ayın 04'si saat 12 UTC'den ayın 04'si saat 16 UTC'ye kadar
Görüş mesafesi: 7000 m
1400 ft yükseklikte parçalı çok bulutlu
sağanak yağmurlar

TAF: TNCC 041115Z 0412/0512 08012KT 9999 SCT020 PROB30 TEMPO 0412/0416 7000 SHRA BKN014

4.000'den fazla havaalanı için hava durumu gözlemleri ve tahminleri (METAR ve TAF raporları).

Kullanılabilir istasyonlar harita üzerinde sarı ve kırmızı noktalarla gösterilir.

İstasyonun adını görmek için fareyi noktanın üzerinde gezdirin.

Sonrasında hava gözlem ve tahminlerini görmek için tıklayın.

Haritayı değiştirmek için: yaklaştırmak için siyah artı işaretli yeşil düğmeye ve uzaklaştırmak için de eksi işaretli düğmeye hızla tıklayın; bitişik haritalar için yeşil okları kullanın.


METAR-TAF: